createdAt,value
2023-04-09T00:00:44.396Z,6.80
2023-04-09T00:03:11.537Z,6.80
2023-04-09T00:05:42.395Z,6.80
2023-04-09T00:08:09.364Z,6.80
2023-04-09T00:10:36.337Z,6.90
2023-04-09T00:13:03.372Z,6.90
2023-04-09T00:15:31.874Z,6.80
2023-04-09T00:17:59.656Z,6.90
2023-04-09T00:20:26.871Z,6.90
2023-04-09T00:22:54.223Z,6.90
2023-04-09T00:25:21.256Z,6.80
2023-04-09T00:27:48.234Z,6.90
2023-04-09T00:30:16.026Z,6.80
2023-04-09T00:32:43.703Z,6.80
2023-04-09T00:35:11.150Z,6.80
2023-04-09T00:37:38.180Z,6.80
2023-04-09T00:40:06.230Z,6.80
2023-04-09T00:42:34.720Z,6.80
2023-04-09T00:45:02.081Z,6.80
2023-04-09T00:47:30.655Z,6.80
2023-04-09T00:49:58.168Z,6.70
2023-04-09T00:52:25.819Z,6.60
2023-04-09T00:54:53.667Z,6.60
2023-04-09T00:57:20.719Z,6.60
2023-04-09T00:59:47.698Z,6.50
2023-04-09T01:02:14.873Z,6.50
2023-04-09T01:04:43.109Z,6.60
2023-04-09T01:07:25.345Z,6.60
2023-04-09T01:10:09.845Z,6.50
2023-04-09T01:13:09.110Z,6.50
2023-04-09T01:15:44.274Z,6.40
2023-04-09T01:18:31.055Z,6.40
2023-04-09T01:21:05.118Z,6.40
2023-04-09T01:23:54.973Z,6.40
2023-04-09T01:26:41.349Z,6.50
2023-04-09T01:29:09.202Z,6.50
2023-04-09T01:31:38.473Z,6.50
2023-04-09T01:34:08.913Z,6.50
2023-04-09T01:36:38.005Z,6.40
2023-04-09T01:39:06.302Z,6.40
2023-04-09T01:41:35.580Z,6.50
2023-04-09T01:44:05.059Z,6.50
2023-04-09T01:46:33.477Z,6.40
2023-04-09T01:49:01.478Z,6.50
2023-04-09T01:51:29.816Z,6.50
2023-04-09T01:53:58.180Z,6.50
2023-04-09T01:56:25.183Z,6.50
2023-04-09T01:58:52.799Z,6.50
2023-04-09T02:01:36.142Z,6.50
2023-04-09T02:04:07.781Z,6.50
2023-04-09T02:06:52.994Z,6.50
2023-04-09T02:09:21.651Z,6.50
2023-04-09T02:11:58.534Z,6.50
2023-04-09T02:14:27.275Z,6.50
2023-04-09T02:16:54.441Z,6.50
2023-04-09T02:19:21.517Z,6.50
2023-04-09T02:21:48.573Z,6.50
2023-04-09T02:24:15.584Z,6.50
2023-04-09T02:26:42.565Z,6.50
2023-04-09T02:29:09.618Z,6.40
2023-04-09T02:31:36.755Z,6.40
2023-04-09T02:34:03.790Z,6.40
2023-04-09T02:36:31.192Z,6.40
2023-04-09T02:38:58.253Z,6.50
2023-04-09T02:41:26.018Z,6.40
2023-04-09T02:43:53.062Z,6.40
2023-04-09T02:46:20.172Z,6.40
2023-04-09T02:48:48.099Z,6.40
2023-04-09T02:51:15.275Z,6.40
2023-04-09T02:53:42.268Z,6.40
2023-04-09T02:56:09.294Z,6.40
2023-04-09T02:58:36.320Z,6.40
2023-04-09T03:01:03.406Z,6.40
2023-04-09T03:03:31.193Z,6.40
2023-04-09T03:05:58.532Z,6.40
2023-04-09T03:08:25.709Z,6.40
2023-04-09T03:10:52.823Z,6.40
2023-04-09T03:13:19.798Z,6.40
2023-04-09T03:15:51.498Z,6.40
2023-04-09T03:18:18.576Z,6.40
2023-04-09T03:20:45.720Z,6.40
2023-04-09T03:23:14.568Z,6.40
2023-04-09T03:25:47.114Z,6.30
2023-04-09T03:28:16.657Z,6.40
2023-04-09T03:30:47.519Z,6.40
2023-04-09T03:33:15.471Z,6.40
2023-04-09T03:35:50.974Z,6.40
2023-04-09T03:38:24.279Z,6.40
2023-04-09T03:40:51.707Z,6.40
2023-04-09T03:43:18.711Z,6.40
2023-04-09T03:45:50.682Z,6.40
2023-04-09T03:48:26.357Z,6.40
2023-04-09T03:50:53.978Z,6.40
2023-04-09T03:53:29.521Z,6.40
2023-04-09T03:56:03.088Z,6.40
2023-04-09T03:58:31.238Z,6.40
2023-04-09T04:00:59.192Z,6.40
2023-04-09T04:03:40.564Z,6.40
2023-04-09T04:06:27.961Z,6.40
2023-04-09T04:09:03.620Z,6.40
2023-04-09T04:11:43.564Z,6.40
2023-04-09T04:14:11.041Z,6.40
2023-04-09T04:16:42.972Z,6.40
2023-04-09T04:19:12.063Z,6.40
2023-04-09T04:21:44.789Z,6.40
2023-04-09T04:24:11.810Z,6.30
2023-04-09T04:26:41.424Z,6.30
2023-04-09T04:29:09.808Z,6.30
2023-04-09T04:31:55.878Z,6.30
2023-04-09T04:34:25.693Z,6.30
2023-04-09T04:37:18.632Z,6.30
2023-04-09T04:39:45.741Z,6.30
2023-04-09T04:42:15.789Z,6.20
2023-04-09T04:44:44.018Z,6.20
2023-04-09T04:47:29.509Z,6.20
2023-04-09T04:49:58.650Z,6.20
2023-04-09T04:52:26.158Z,6.10
2023-04-09T04:54:54.324Z,6.10
2023-04-09T04:57:23.662Z,6.10
2023-04-09T04:59:50.940Z,6.10
2023-04-09T05:02:18.884Z,6.10
2023-04-09T05:05:06.779Z,6.10
2023-04-09T05:07:39.445Z,6.10
2023-04-09T05:10:07.380Z,6.20
2023-04-09T05:12:38.491Z,6.20
2023-04-09T05:15:07.045Z,6.20
2023-04-09T05:17:34.067Z,6.20
2023-04-09T05:20:01.311Z,6.30
2023-04-09T05:22:44.233Z,6.30
2023-04-09T05:25:11.403Z,6.30
2023-04-09T05:27:40.964Z,6.30
2023-04-09T05:30:10.929Z,6.40
2023-04-09T05:32:39.290Z,6.40
2023-04-09T05:35:07.031Z,6.40
2023-04-09T05:37:39.318Z,6.40
2023-04-09T05:40:07.402Z,6.40
2023-04-09T05:42:34.702Z,6.40
2023-04-09T05:45:06.187Z,6.40
2023-04-09T05:47:33.571Z,6.40
2023-04-09T05:50:12.286Z,6.40
2023-04-09T05:52:39.360Z,6.40
2023-04-09T05:55:07.502Z,6.30
2023-04-09T05:57:45.523Z,6.30
2023-04-09T06:00:13.666Z,6.20
2023-04-09T06:02:48.456Z,6.10
2023-04-09T06:05:15.626Z,6.20
2023-04-09T06:07:42.620Z,6.10
2023-04-09T06:10:09.905Z,6.10
2023-04-09T06:12:36.953Z,6.00
2023-04-09T06:15:07.630Z,6.00
2023-04-09T06:17:34.637Z,6.00
2023-04-09T06:20:01.706Z,6.00
2023-04-09T06:22:28.734Z,6.00
2023-04-09T06:24:55.913Z,6.00
2023-04-09T06:27:22.956Z,6.00
2023-04-09T06:29:49.931Z,6.10
2023-04-09T06:32:17.201Z,6.10
2023-04-09T06:34:44.437Z,6.20
2023-04-09T06:37:11.578Z,6.30
2023-04-09T06:39:40.407Z,6.30
2023-04-09T06:42:09.502Z,6.40
2023-04-09T06:44:55.462Z,6.40
2023-04-09T06:47:22.419Z,6.40
2023-04-09T06:49:49.476Z,6.50
2023-04-09T06:52:16.853Z,6.50
2023-04-09T06:54:43.796Z,6.50
2023-04-09T06:57:14.062Z,6.60
2023-04-09T06:59:41.322Z,6.50
2023-04-09T07:02:09.190Z,6.50
2023-04-09T07:04:37.605Z,6.60
2023-04-09T07:07:05.230Z,6.60
2023-04-09T07:09:32.367Z,6.70
2023-04-09T07:11:59.422Z,6.70
2023-04-09T07:14:26.385Z,6.80
2023-04-09T07:16:53.322Z,6.90
2023-04-09T07:19:20.372Z,6.90
2023-04-09T07:21:47.352Z,7.00
2023-04-09T07:24:14.357Z,7.10
2023-04-09T07:26:41.593Z,7.10
2023-04-09T07:29:08.781Z,7.20
2023-04-09T07:31:36.285Z,7.30
2023-04-09T07:34:03.335Z,7.30
2023-04-09T07:36:31.892Z,7.40
2023-04-09T07:38:59.006Z,7.40
2023-04-09T07:41:26.133Z,7.50
2023-04-09T07:43:53.110Z,7.60
2023-04-09T07:46:22.015Z,7.70
2023-04-09T07:48:50.416Z,7.70
2023-04-09T07:51:18.241Z,7.80
2023-04-09T07:53:45.256Z,7.90
2023-04-09T07:56:12.425Z,8.00
2023-04-09T07:58:39.493Z,8.10
2023-04-09T08:01:06.573Z,8.20
2023-04-09T08:03:33.786Z,8.30
2023-04-09T08:06:01.442Z,8.40
2023-04-09T08:08:28.553Z,8.60
2023-04-09T08:10:55.723Z,8.70
2023-04-09T08:13:25.474Z,8.80
2023-04-09T08:15:52.588Z,8.90
2023-04-09T08:18:19.590Z,9.00
2023-04-09T08:20:46.831Z,9.10
2023-04-09T08:23:14.025Z,9.30
2023-04-09T08:25:41.124Z,9.40
2023-04-09T08:28:08.483Z,9.50
2023-04-09T08:30:35.717Z,9.70
2023-04-09T08:33:03.059Z,9.90
2023-04-09T08:35:33.537Z,10.20
2023-04-09T08:38:00.511Z,10.40
2023-04-09T08:40:27.591Z,10.60
2023-04-09T08:42:57.037Z,10.70
2023-04-09T08:45:24.438Z,10.90
2023-04-09T08:47:52.434Z,11.10
2023-04-09T08:50:20.259Z,11.30
2023-04-09T08:52:48.666Z,11.40
2023-04-09T08:55:15.866Z,11.60
2023-04-09T08:57:43.374Z,11.70
2023-04-09T09:00:10.963Z,11.90
2023-04-09T09:02:39.491Z,12.10
2023-04-09T09:05:07.171Z,12.20
2023-04-09T09:07:34.436Z,12.30
2023-04-09T09:10:05.192Z,12.30
2023-04-09T09:12:32.123Z,12.20
2023-04-09T09:14:59.253Z,12.30
2023-04-09T09:17:26.777Z,12.30
2023-04-09T09:19:54.082Z,12.40
2023-04-09T09:22:21.694Z,12.60
2023-04-09T09:24:50.395Z,12.80
2023-04-09T09:27:39.666Z,13.00
2023-04-09T09:30:08.857Z,13.30
2023-04-09T09:32:36.389Z,13.40
2023-04-09T09:35:07.508Z,13.70
2023-04-09T09:37:34.709Z,13.60
2023-04-09T09:40:02.093Z,13.50
2023-04-09T09:42:29.065Z,13.50
2023-04-09T09:44:56.628Z,13.70
2023-04-09T09:47:25.357Z,13.60
2023-04-09T09:49:52.746Z,13.50
2023-04-09T09:52:27.193Z,13.60
2023-04-09T09:54:56.001Z,13.80
2023-04-09T09:57:25.360Z,14.00
2023-04-09T10:00:06.463Z,14.10
2023-04-09T10:02:54.080Z,14.30
2023-04-09T10:05:25.155Z,14.60
2023-04-09T10:07:57.446Z,14.60
2023-04-09T10:10:25.892Z,14.40
2023-04-09T10:12:53.056Z,14.30
2023-04-09T10:15:20.596Z,14.30
2023-04-09T10:17:48.159Z,14.50
2023-04-09T10:20:29.168Z,14.60
2023-04-09T10:22:57.746Z,14.70
2023-04-09T10:25:24.844Z,14.70
2023-04-09T10:28:02.425Z,14.70
2023-04-09T10:30:33.998Z,14.80
2023-04-09T10:33:12.186Z,15.00
2023-04-09T10:35:39.417Z,15.10
2023-04-09T10:38:10.779Z,15.10
2023-04-09T10:40:56.058Z,15.20
2023-04-09T10:43:23.810Z,15.20
2023-04-09T10:45:53.712Z,15.00
2023-04-09T10:48:22.151Z,14.80
2023-04-09T10:50:54.138Z,14.80
2023-04-09T10:53:28.010Z,14.90
2023-04-09T10:55:56.708Z,14.90
2023-04-09T10:58:23.696Z,14.80
2023-04-09T11:00:51.622Z,14.80
2023-04-09T11:03:30.708Z,14.50
2023-04-09T11:06:03.252Z,14.40
2023-04-09T11:08:32.103Z,14.40
2023-04-09T11:11:01.574Z,14.40
2023-04-09T11:13:29.733Z,14.20
2023-04-09T11:15:57.396Z,14.30
2023-04-09T11:18:26.471Z,14.40
2023-04-09T11:21:00.995Z,14.20
2023-04-09T11:23:28.432Z,14.30
2023-04-09T11:25:56.524Z,14.30
2023-04-09T11:28:24.505Z,14.40
2023-04-09T11:30:52.465Z,14.60
2023-04-09T11:33:20.453Z,14.80
2023-04-09T11:35:48.663Z,14.80
2023-04-09T11:38:16.059Z,15.00
2023-04-09T11:40:49.061Z,15.10
2023-04-09T11:43:16.971Z,15.20
2023-04-09T11:45:48.833Z,15.20
2023-04-09T11:48:23.390Z,15.30
2023-04-09T11:50:51.040Z,15.40
2023-04-09T11:53:45.875Z,15.40
2023-04-09T11:56:13.286Z,15.50
2023-04-09T11:58:47.421Z,15.40
2023-04-09T12:01:15.701Z,15.30
2023-04-09T12:03:43.017Z,15.10
2023-04-09T12:06:10.124Z,14.90
2023-04-09T12:08:37.667Z,14.70
2023-04-09T12:11:16.268Z,14.60
2023-04-09T12:13:44.806Z,14.60
2023-04-09T12:16:13.675Z,14.60
2023-04-09T12:18:41.141Z,14.70
2023-04-09T12:21:08.271Z,14.70
2023-04-09T12:23:35.359Z,14.80
2023-04-09T12:26:02.568Z,15.00
2023-04-09T12:28:29.724Z,15.10
2023-04-09T12:30:58.410Z,15.10
2023-04-09T12:33:25.442Z,15.10
2023-04-09T12:35:52.489Z,15.20
2023-04-09T12:38:19.429Z,15.40
2023-04-09T12:40:47.000Z,15.70
2023-04-09T12:43:53.610Z,15.80
2023-04-09T12:46:20.766Z,15.80
2023-04-09T12:48:47.862Z,15.80
2023-04-09T12:51:42.080Z,15.80
2023-04-09T12:54:08.975Z,15.90
2023-04-09T12:56:36.007Z,16.00
2023-04-09T12:59:04.103Z,15.90
2023-04-09T13:01:31.235Z,15.80
2023-04-09T13:03:58.781Z,15.60
2023-04-09T13:06:26.231Z,15.60
2023-04-09T13:08:59.133Z,15.50
2023-04-09T13:11:26.490Z,15.50
2023-04-09T13:13:53.995Z,15.60
2023-04-09T13:16:21.159Z,15.70
2023-04-09T13:18:48.272Z,15.70
2023-04-09T13:21:18.826Z,15.80
2023-04-09T13:23:45.794Z,15.70
2023-04-09T13:26:12.821Z,15.60
2023-04-09T13:28:39.748Z,15.80
2023-04-09T13:31:06.843Z,16.10
2023-04-09T13:33:34.189Z,16.40
2023-04-09T13:36:01.559Z,16.30
2023-04-09T13:38:28.657Z,16.00
2023-04-09T13:41:28.350Z,15.90
2023-04-09T13:43:55.829Z,15.90
2023-04-09T13:47:18.581Z,15.90
2023-04-09T13:50:47.758Z,15.80
2023-04-09T13:53:14.875Z,15.70
2023-04-09T13:55:41.854Z,15.60
2023-04-09T13:58:08.790Z,15.50
2023-04-09T14:00:39.826Z,15.50
2023-04-09T14:03:07.012Z,15.40
2023-04-09T14:05:34.041Z,15.50
2023-04-09T14:08:01.259Z,15.70
2023-04-09T14:10:28.177Z,15.80
2023-04-09T14:12:59.400Z,15.90
2023-04-09T14:15:26.850Z,15.90
2023-04-09T14:17:53.916Z,15.90
2023-04-09T14:20:21.470Z,15.90
2023-04-09T14:22:53.614Z,16.00
2023-04-09T14:25:24.846Z,16.20
2023-04-09T14:27:52.286Z,16.30
2023-04-09T14:30:19.327Z,16.20
2023-04-09T14:32:46.516Z,16.20
2023-04-09T14:35:13.581Z,16.10
2023-04-09T14:37:41.120Z,16.00
2023-04-09T14:40:09.264Z,15.90
2023-04-09T14:42:37.350Z,15.80
2023-04-09T14:45:04.636Z,15.80
2023-04-09T14:47:31.724Z,15.80
2023-04-09T14:49:58.664Z,15.80
2023-04-09T14:52:26.043Z,15.70
2023-04-09T14:54:53.053Z,15.60
2023-04-09T14:57:20.040Z,15.50
2023-04-09T14:59:47.049Z,15.60
2023-04-09T15:02:14.221Z,15.60
2023-04-09T15:04:41.523Z,15.60
2023-04-09T15:07:08.533Z,15.40
2023-04-09T15:09:35.824Z,15.50
2023-04-09T15:12:03.434Z,15.50
2023-04-09T15:14:31.374Z,15.60
2023-04-09T15:16:58.377Z,15.60
2023-04-09T15:19:25.415Z,15.60
2023-04-09T15:21:52.579Z,15.60
2023-04-09T15:24:19.585Z,15.60
2023-04-09T15:26:46.616Z,15.40
2023-04-09T15:29:13.634Z,15.30
2023-04-09T15:31:41.607Z,15.00
2023-04-09T15:34:08.798Z,15.00
2023-04-09T15:36:36.002Z,15.00
2023-04-09T15:39:04.603Z,14.90
2023-04-09T15:41:32.368Z,14.90
2023-04-09T15:43:59.482Z,14.90
2023-04-09T15:46:26.356Z,15.00
2023-04-09T15:48:53.652Z,15.00
2023-04-09T15:51:21.156Z,15.00
2023-04-09T15:53:48.165Z,15.10
2023-04-09T15:56:17.829Z,15.20
2023-04-09T15:58:44.830Z,15.20
2023-04-09T16:01:38.195Z,15.30
2023-04-09T16:04:05.473Z,15.50
2023-04-09T16:06:32.702Z,15.60
2023-04-09T16:08:59.723Z,15.60
2023-04-09T16:12:02.930Z,15.50
2023-04-09T16:14:30.245Z,15.40
2023-04-09T16:16:57.178Z,15.40
2023-04-09T16:19:25.337Z,15.20
2023-04-09T16:21:53.326Z,15.10
2023-04-09T16:24:58.460Z,15.00
2023-04-09T16:27:25.495Z,14.70
2023-04-09T16:29:52.540Z,14.60
2023-04-09T16:32:19.455Z,14.60
2023-04-09T16:34:47.459Z,14.50
2023-04-09T16:37:14.536Z,14.50
2023-04-09T16:39:42.080Z,14.40
2023-04-09T16:42:09.628Z,14.30
2023-04-09T16:44:36.768Z,14.20
2023-04-09T16:47:05.384Z,14.00
2023-04-09T16:49:32.385Z,13.80
2023-04-09T16:51:59.435Z,13.70
2023-04-09T16:54:26.587Z,13.70
2023-04-09T16:56:53.654Z,13.50
2023-04-09T16:59:27.771Z,13.30
2023-04-09T17:01:54.825Z,13.20
2023-04-09T17:04:22.003Z,13.00
2023-04-09T17:06:48.988Z,12.90
2023-04-09T17:09:16.614Z,12.90
2023-04-09T17:11:44.668Z,12.80
2023-04-09T17:14:11.680Z,12.80
2023-04-09T17:16:38.717Z,12.70
2023-04-09T17:19:05.869Z,12.60
2023-04-09T17:21:32.886Z,12.30
2023-04-09T17:24:01.917Z,12.20
2023-04-09T17:26:29.454Z,12.10
2023-04-09T17:28:56.364Z,12.00
2023-04-09T17:31:24.480Z,11.90
2023-04-09T17:33:52.389Z,11.90
2023-04-09T17:36:21.260Z,11.90
2023-04-09T17:38:50.126Z,11.90
2023-04-09T17:41:17.119Z,11.80
2023-04-09T17:43:44.018Z,11.70
2023-04-09T17:46:36.848Z,11.70
2023-04-09T17:49:03.974Z,11.60
2023-04-09T17:51:30.865Z,11.50
2023-04-09T17:53:57.841Z,11.50
2023-04-09T17:56:25.193Z,11.40
2023-04-09T17:58:52.269Z,11.30
2023-04-09T18:01:19.482Z,11.20
2023-04-09T18:03:47.082Z,11.20
2023-04-09T18:06:15.676Z,11.10
2023-04-09T18:08:43.454Z,11.00
2023-04-09T18:11:13.273Z,11.00
2023-04-09T18:13:40.899Z,10.90
2023-04-09T18:16:12.309Z,10.80
2023-04-09T18:18:39.617Z,10.70
2023-04-09T18:21:06.926Z,10.70
2023-04-09T18:23:33.939Z,10.60
2023-04-09T18:26:00.868Z,10.50
2023-04-09T18:28:28.148Z,10.30
2023-04-09T18:30:55.137Z,10.20
2023-04-09T18:33:23.105Z,10.20
2023-04-09T18:35:50.052Z,10.10
2023-04-09T18:38:17.881Z,10.00
2023-04-09T18:40:45.038Z,10.00
2023-04-09T18:43:12.570Z,9.90
2023-04-09T18:45:39.799Z,9.90
2023-04-09T18:48:08.188Z,9.80
2023-04-09T18:50:35.794Z,9.70
2023-04-09T18:53:03.760Z,9.70
2023-04-09T18:55:31.941Z,9.60
2023-04-09T18:57:58.901Z,9.50
2023-04-09T19:00:25.968Z,9.40
2023-04-09T19:02:53.806Z,9.30
2023-04-09T19:05:21.058Z,9.30
2023-04-09T19:07:48.113Z,9.20
2023-04-09T19:11:06.340Z,9.10
2023-04-09T19:13:33.773Z,9.10
2023-04-09T19:16:00.873Z,9.00
2023-04-09T19:18:27.858Z,9.00
2023-04-09T19:20:54.922Z,8.90
2023-04-09T19:23:21.908Z,8.80
2023-04-09T19:25:55.861Z,8.80
2023-04-09T19:28:23.325Z,8.70
2023-04-09T19:30:52.584Z,8.60
2023-04-09T19:33:24.663Z,8.50
2023-04-09T19:35:55.483Z,8.50
2023-04-09T19:38:22.885Z,8.50
2023-04-09T19:40:49.966Z,8.50
2023-04-09T19:43:17.026Z,8.50
2023-04-09T19:45:44.483Z,8.40
2023-04-09T19:48:12.700Z,8.40
2023-04-09T19:50:46.709Z,8.40
2023-04-09T19:53:13.705Z,8.40
2023-04-09T19:55:41.771Z,8.40
2023-04-09T19:58:08.790Z,8.40
2023-04-09T20:00:36.053Z,8.30
2023-04-09T20:03:03.519Z,8.20
2023-04-09T20:05:30.668Z,8.10
2023-04-09T20:07:57.689Z,8.10
2023-04-09T20:10:24.780Z,8.10
2023-04-09T20:12:52.063Z,8.00
2023-04-09T20:15:49.991Z,8.00
2023-04-09T20:18:17.002Z,8.00
2023-04-09T20:20:44.054Z,8.00
2023-04-09T20:23:11.025Z,8.00
2023-04-09T20:25:38.201Z,8.00
2023-04-09T20:28:05.252Z,8.00
2023-04-09T20:30:32.627Z,8.10
2023-04-09T20:32:59.805Z,8.20
2023-04-09T20:35:27.452Z,8.20
2023-04-09T20:37:55.318Z,8.10
2023-04-09T20:40:22.635Z,8.10
2023-04-09T20:42:49.789Z,8.10
2023-04-09T20:45:16.980Z,8.00
2023-04-09T20:47:44.069Z,8.00
2023-04-09T20:50:11.445Z,7.90
2023-04-09T20:52:38.838Z,7.90
2023-04-09T20:55:06.551Z,7.80
2023-04-09T20:57:33.872Z,7.80
2023-04-09T21:00:02.136Z,7.80
2023-04-09T21:02:29.435Z,7.80
2023-04-09T21:05:00.039Z,7.70
2023-04-09T21:07:30.446Z,7.70
2023-04-09T21:09:57.451Z,7.70
2023-04-09T21:12:24.503Z,7.60
2023-04-09T21:14:51.537Z,7.60
2023-04-09T21:17:21.037Z,7.50
2023-04-09T21:19:49.419Z,7.50
2023-04-09T21:22:16.474Z,7.40
2023-04-09T21:24:43.479Z,7.40
2023-04-09T21:27:10.733Z,7.30
2023-04-09T21:29:37.756Z,7.30
2023-04-09T21:32:04.872Z,7.20
2023-04-09T21:34:31.900Z,7.10
2023-04-09T21:36:59.157Z,7.10
2023-04-09T21:39:26.308Z,7.10
2023-04-09T21:41:53.284Z,7.00
2023-04-09T21:44:20.699Z,7.00
2023-04-09T21:46:47.878Z,6.90
2023-04-09T21:49:14.888Z,6.90
2023-04-09T21:51:42.078Z,6.80
2023-04-09T21:54:09.880Z,6.80
2023-04-09T21:56:37.545Z,6.70
2023-04-09T21:59:05.516Z,6.70
2023-04-09T22:01:34.954Z,6.60
2023-04-09T22:04:02.363Z,6.60
2023-04-09T22:06:29.764Z,6.60
2023-04-09T22:08:58.232Z,6.50
2023-04-09T22:11:27.881Z,6.50
2023-04-09T22:13:58.418Z,6.40
2023-04-09T22:16:26.052Z,6.40
2023-04-09T22:18:54.206Z,6.30
2023-04-09T22:21:21.690Z,6.20
2023-04-09T22:23:48.743Z,6.10
2023-04-09T22:26:15.885Z,6.00
2023-04-09T22:28:42.912Z,6.00
2023-04-09T22:31:10.011Z,6.00
2023-04-09T22:33:37.126Z,6.00
2023-04-09T22:36:04.329Z,6.00
2023-04-09T22:38:31.436Z,6.00
2023-04-09T22:40:58.423Z,6.10
2023-04-09T22:43:25.536Z,6.10
2023-04-09T22:45:56.122Z,6.10
2023-04-09T22:48:23.664Z,6.10
2023-04-09T22:50:52.014Z,6.10
2023-04-09T22:53:19.560Z,6.10
2023-04-09T22:55:48.842Z,6.20
2023-04-09T22:58:15.906Z,6.10
2023-04-09T23:00:44.201Z,6.00
2023-04-09T23:03:11.360Z,6.00
2023-04-09T23:05:38.692Z,6.00
2023-04-09T23:08:07.753Z,6.00
2023-04-09T23:10:35.206Z,6.00
2023-04-09T23:13:02.579Z,6.00
2023-04-09T23:15:29.755Z,5.90
2023-04-09T23:17:57.065Z,5.90
2023-04-09T23:20:24.237Z,5.90
2023-04-09T23:22:51.241Z,5.80
2023-04-09T23:25:18.588Z,5.80
2023-04-09T23:27:46.715Z,5.80
2023-04-09T23:30:17.188Z,5.70
2023-04-09T23:32:45.360Z,5.70
2023-04-09T23:35:12.713Z,5.70
2023-04-09T23:37:41.263Z,5.70
2023-04-09T23:40:09.098Z,5.60
2023-04-09T23:42:36.149Z,5.50
2023-04-09T23:45:06.603Z,5.50
2023-04-09T23:47:35.693Z,5.50
2023-04-09T23:50:07.652Z,5.40
2023-04-09T23:52:35.952Z,5.30
2023-04-09T23:55:03.895Z,5.30
2023-04-09T23:57:30.999Z,5.30
2023-04-09T23:59:58.123Z,5.20
